Egg Harbor, Wisconsin
Current Conditions -  °F | °C
As of 11:15 AM on Wednesday 26 Nov 2014 (Local Time) from KSUE Reporting Station
Clear Clear  
Wind Chill: 25°   Ceiling: Unl
Heat Index: 25°   Visibility: 10mi
Dew Point: 16°   Wind: 0mph
Humidity: 69%   Direction: NA
Pressure: 30.17"   Gusts: NA
Location:  45.05°N, 87.3°W
Report Text: KSUE 261715Z AUTO 00000KT 10SM CLR M04/M09 A3017 RMK AO1
Loading
Personal Weather Stations






























Interactive Weather Map New forecast layout! Learn more

10-Day Weather Forecast

Advertisements
Track Severe Weather on mobile